createdAt,value
2022-09-15T00:01:20.008Z,80.05
2022-09-15T00:03:48.671Z,80.36
2022-09-15T00:06:16.877Z,80.35
2022-09-15T00:08:44.928Z,80.40
2022-09-15T00:11:22.229Z,80.49
2022-09-15T00:13:51.641Z,80.70
2022-09-15T00:16:22.402Z,80.65
2022-09-15T00:18:50.764Z,80.61
2022-09-15T00:21:21.655Z,80.74
2022-09-15T00:23:50.247Z,80.66
2022-09-15T00:26:22.907Z,80.73
2022-09-15T00:28:51.645Z,80.96
2022-09-15T00:31:22.767Z,80.87
2022-09-15T00:33:52.551Z,80.98
2022-09-15T00:36:22.581Z,81.08
2022-09-15T00:38:50.807Z,81.07
2022-09-15T00:41:20.766Z,81.10
2022-09-15T00:44:27.148Z,81.23
2022-09-15T00:47:17.867Z,81.63
2022-09-15T00:49:47.651Z,81.86
2022-09-15T00:52:28.693Z,81.77
2022-09-15T00:55:06.491Z,81.89
2022-09-15T00:57:42.283Z,82.04
2022-09-15T01:00:14.348Z,82.00
2022-09-15T01:02:44.699Z,81.99
2022-09-15T01:05:15.508Z,81.87
2022-09-15T01:07:56.553Z,81.90
2022-09-15T01:10:30.485Z,81.95
2022-09-15T01:13:01.118Z,82.03
2022-09-15T01:15:51.625Z,82.09
2022-09-15T01:18:22.442Z,82.13
2022-09-15T01:20:57.143Z,82.11
2022-09-15T01:23:58.526Z,82.13
2022-09-15T01:26:42.249Z,82.22
2022-09-15T01:29:41.891Z,82.17
2022-09-15T01:32:32.360Z,82.29
2022-09-15T01:35:10.930Z,82.31
2022-09-15T01:37:44.606Z,82.32
2022-09-15T01:40:15.488Z,82.36
2022-09-15T01:42:45.504Z,82.29
2022-09-15T01:45:29.311Z,82.31
2022-09-15T01:47:59.641Z,82.41
2022-09-15T01:50:36.636Z,82.41
2022-09-15T01:53:11.418Z,82.53
2022-09-15T01:55:44.457Z,82.58
2022-09-15T01:58:12.367Z,82.67
2022-09-15T02:00:46.061Z,82.65
2022-09-15T02:03:33.714Z,82.61
2022-09-15T02:06:07.225Z,82.64
2022-09-15T02:08:47.687Z,82.64
2022-09-15T02:11:28.025Z,82.97
2022-09-15T02:14:17.328Z,82.89
2022-09-15T02:16:49.003Z,82.99
2022-09-15T02:19:35.875Z,82.94
2022-09-15T02:22:10.598Z,83.05
2022-09-15T02:24:44.290Z,82.90
2022-09-15T02:27:18.371Z,83.05
2022-09-15T02:29:48.704Z,82.94
2022-09-15T02:32:23.163Z,83.17
2022-09-15T02:34:54.639Z,83.17
2022-09-15T02:37:24.225Z,83.09
2022-09-15T02:39:59.296Z,83.22
2022-09-15T02:42:29.801Z,83.26
2022-09-15T02:44:58.630Z,83.11
2022-09-15T02:47:28.284Z,83.35
2022-09-15T02:49:56.044Z,83.34
2022-09-15T02:52:24.292Z,83.29
2022-09-15T02:54:52.014Z,83.40
2022-09-15T02:57:19.768Z,83.38
2022-09-15T03:00:03.993Z,83.51
2022-09-15T03:02:32.272Z,83.78
2022-09-15T03:05:00.055Z,83.70
2022-09-15T03:07:28.528Z,83.83
2022-09-15T03:09:56.646Z,83.66
2022-09-15T03:12:25.622Z,83.68
2022-09-15T03:14:53.400Z,83.74
2022-09-15T03:17:21.133Z,83.78
2022-09-15T03:19:50.504Z,83.84
2022-09-15T03:22:18.241Z,83.89
2022-09-15T03:24:46.020Z,83.83
2022-09-15T03:27:14.515Z,83.90
2022-09-15T03:29:42.626Z,83.97
2022-09-15T03:32:10.855Z,83.98
2022-09-15T03:34:38.632Z,83.85
2022-09-15T03:37:06.906Z,84.12
2022-09-15T03:39:34.671Z,84.10
2022-09-15T03:42:02.403Z,84.06
2022-09-15T03:44:30.271Z,84.13
2022-09-15T03:46:58.298Z,84.11
2022-09-15T03:49:26.028Z,84.12
2022-09-15T03:51:53.771Z,84.27
2022-09-15T03:54:21.550Z,84.31
2022-09-15T03:56:51.883Z,84.38
2022-09-15T03:59:20.881Z,84.31
2022-09-15T04:01:49.097Z,84.46
2022-09-15T04:04:17.529Z,84.35
2022-09-15T04:06:45.318Z,84.41
2022-09-15T04:09:13.568Z,84.58
2022-09-15T04:11:41.941Z,84.61
2022-09-15T04:14:09.706Z,84.54
2022-09-15T04:16:37.625Z,84.78
2022-09-15T04:19:05.374Z,84.84
2022-09-15T04:21:33.122Z,84.81
2022-09-15T04:24:01.068Z,84.89
2022-09-15T04:26:31.879Z,84.91
2022-09-15T04:29:04.140Z,84.87
2022-09-15T04:31:33.778Z,84.83
2022-09-15T04:34:01.912Z,84.88
2022-09-15T04:36:30.137Z,84.84
2022-09-15T04:38:58.174Z,84.85
2022-09-15T04:41:26.832Z,84.94
2022-09-15T04:43:55.212Z,85.09
2022-09-15T04:46:23.072Z,85.06
2022-09-15T04:48:52.137Z,85.09
2022-09-15T04:51:21.285Z,85.30
2022-09-15T04:53:50.112Z,85.17
2022-09-15T04:56:21.108Z,85.18
2022-09-15T04:59:03.253Z,85.24
2022-09-15T05:01:35.408Z,85.36
2022-09-15T05:04:04.576Z,85.38
2022-09-15T05:06:35.030Z,85.48
2022-09-15T05:09:10.014Z,85.52
2022-09-15T05:11:38.628Z,85.50
2022-09-15T05:14:08.074Z,85.43
2022-09-15T05:16:36.049Z,85.54
2022-09-15T05:19:04.731Z,85.67
2022-09-15T05:21:32.945Z,85.70
2022-09-15T05:24:00.843Z,85.73
2022-09-15T05:26:29.826Z,85.59
2022-09-15T05:28:57.760Z,85.66
2022-09-15T05:31:28.407Z,85.87
2022-09-15T05:33:56.926Z,85.92
2022-09-15T05:36:25.322Z,85.96
2022-09-15T05:38:56.464Z,86.04
2022-09-15T05:41:25.563Z,86.12
2022-09-15T05:43:56.933Z,86.04
2022-09-15T05:46:29.343Z,86.22
2022-09-15T05:48:58.497Z,86.19
2022-09-15T05:51:26.358Z,86.25
2022-09-15T05:53:54.132Z,86.16
2022-09-15T05:56:22.060Z,86.04
2022-09-15T05:58:49.890Z,86.13
2022-09-15T06:01:23.545Z,86.04
2022-09-15T06:03:53.035Z,85.97
2022-09-15T06:06:22.082Z,86.04
2022-09-15T06:08:58.588Z,86.02
2022-09-15T06:11:30.135Z,85.87
2022-09-15T06:14:03.672Z,85.94
2022-09-15T06:16:34.405Z,85.89
2022-09-15T06:19:03.429Z,85.94
2022-09-15T06:21:33.080Z,85.99
2022-09-15T06:24:07.124Z,85.89
2022-09-15T06:26:35.182Z,85.94
2022-09-15T06:29:05.125Z,85.84
2022-09-15T06:31:34.453Z,85.79
2022-09-15T06:34:04.020Z,85.81
2022-09-15T06:36:32.379Z,85.74
2022-09-15T06:39:00.209Z,85.79
2022-09-15T06:41:47.459Z,85.59
2022-09-15T06:44:19.773Z,85.57
2022-09-15T06:46:48.471Z,85.50
2022-09-15T06:49:16.935Z,85.61
2022-09-15T06:51:44.945Z,85.50
2022-09-15T06:54:14.588Z,85.57
2022-09-15T06:56:42.986Z,85.44
2022-09-15T06:59:12.672Z,85.32
2022-09-15T07:01:44.868Z,85.26
2022-09-15T07:04:12.872Z,85.06
2022-09-15T07:06:40.687Z,85.09
2022-09-15T07:09:08.514Z,85.07
2022-09-15T07:11:36.544Z,84.99
2022-09-15T07:14:04.940Z,84.96
2022-09-15T07:16:33.445Z,84.94
2022-09-15T07:19:03.484Z,84.78
2022-09-15T07:25:11.133Z,84.37
2022-09-15T07:27:39.330Z,84.35
2022-09-15T07:30:08.846Z,84.03
2022-09-15T07:32:36.518Z,83.11
2022-09-15T07:35:04.452Z,83.19
2022-09-15T07:37:33.189Z,83.38
2022-09-15T07:40:01.141Z,83.26
2022-09-15T07:42:32.191Z,83.23
2022-09-15T07:45:03.234Z,82.91
2022-09-15T07:47:32.888Z,82.75
2022-09-15T07:50:00.690Z,82.60
2022-09-15T07:52:28.459Z,82.58
2022-09-15T07:54:56.299Z,81.89
2022-09-15T07:57:24.056Z,81.76
2022-09-15T07:59:51.815Z,80.83
2022-09-15T08:02:21.439Z,80.50
2022-09-15T08:04:49.372Z,80.97
2022-09-15T08:07:17.141Z,80.53
2022-09-15T08:09:44.981Z,80.58
2022-09-15T08:12:12.754Z,80.03
2022-09-15T08:14:52.616Z,79.80
2022-09-15T08:17:35.205Z,80.15
2022-09-15T08:20:44.894Z,79.44
2022-09-15T08:23:13.070Z,78.91
2022-09-15T08:25:40.853Z,79.39
2022-09-15T08:28:08.695Z,77.97
2022-09-15T08:30:36.819Z,77.70
2022-09-15T08:33:04.823Z,76.99
2022-09-15T08:35:34.337Z,77.67
2022-09-15T08:38:02.364Z,78.15
2022-09-15T08:40:37.526Z,76.73
2022-09-15T08:43:21.000Z,76.87
2022-09-15T08:45:55.815Z,76.96
2022-09-15T08:52:06.828Z,76.53
2022-09-15T08:54:34.624Z,76.13
2022-09-15T08:57:06.032Z,76.29
2022-09-15T08:59:35.965Z,74.32
2022-09-15T09:02:11.775Z,75.09
2022-09-15T11:29:03.467Z,61.00
2022-09-15T11:31:38.862Z,60.42
2022-09-15T11:34:20.891Z,60.97
2022-09-15T11:37:11.080Z,61.54
2022-09-15T11:39:54.154Z,61.41
2022-09-15T11:42:38.134Z,60.38
2022-09-15T11:45:18.098Z,60.37
2022-09-15T11:47:54.564Z,59.98
2022-09-15T11:50:49.874Z,60.42
2022-09-15T11:53:37.726Z,59.65
2022-09-15T11:56:16.123Z,60.43
2022-09-15T11:59:03.775Z,60.55
2022-09-15T12:01:41.297Z,60.29
2022-09-15T12:04:15.366Z,60.13
2022-09-15T12:06:55.466Z,60.51
2022-09-15T12:09:23.524Z,60.60
2022-09-15T12:12:01.915Z,61.07
2022-09-15T12:14:35.092Z,61.40
2022-09-15T12:17:06.248Z,61.52
2022-09-15T12:19:33.965Z,61.45
2022-09-15T12:22:16.263Z,61.09
2022-09-15T12:24:53.397Z,61.03
2022-09-15T12:27:21.899Z,61.55
2022-09-15T12:29:51.727Z,61.46
2022-09-15T12:32:21.201Z,60.63
2022-09-15T12:34:56.241Z,60.52
2022-09-15T12:37:25.705Z,60.35
2022-09-15T12:39:54.205Z,60.69
2022-09-15T12:42:31.347Z,60.92
2022-09-15T12:45:03.821Z,60.47
2022-09-15T12:47:51.409Z,60.24
2022-09-15T12:50:51.813Z,59.70
2022-09-15T12:53:40.839Z,58.33
2022-09-15T12:56:28.477Z,58.21
2022-09-15T12:58:56.685Z,58.00
2022-09-15T13:01:24.557Z,58.88
2022-09-15T13:03:57.775Z,58.67
2022-09-15T13:06:34.101Z,59.06
2022-09-15T13:09:06.383Z,59.20
2022-09-15T13:11:37.305Z,59.33
2022-09-15T13:14:08.721Z,59.05
2022-09-15T13:16:48.726Z,58.84
2022-09-15T13:19:25.837Z,59.54
2022-09-15T13:22:00.280Z,59.67
2022-09-15T13:25:01.515Z,59.35
2022-09-15T13:27:47.901Z,59.63
2022-09-15T13:30:22.202Z,59.86
2022-09-15T13:32:54.359Z,60.19
2022-09-15T13:35:41.350Z,60.00
2022-09-15T13:38:29.272Z,60.41
2022-09-15T13:41:33.253Z,60.60
2022-09-15T13:44:33.047Z,60.09
2022-09-15T13:47:15.861Z,59.60
2022-09-15T13:50:26.011Z,58.91
2022-09-15T13:53:25.704Z,58.98
2022-09-15T13:55:55.633Z,56.22
2022-09-15T14:01:14.442Z,57.28
2022-09-15T14:04:00.816Z,57.44
2022-09-15T14:06:35.670Z,57.33
2022-09-15T14:09:08.894Z,58.05
2022-09-15T14:11:38.677Z,57.81
2022-09-15T14:14:21.385Z,58.35
2022-09-15T14:16:50.834Z,58.66
2022-09-15T14:19:34.944Z,58.81
2022-09-15T14:22:18.960Z,58.75
2022-09-15T14:24:47.515Z,58.49
2022-09-15T14:27:22.202Z,57.88
2022-09-15T14:29:55.382Z,57.01
2022-09-15T14:32:25.480Z,56.65
2022-09-15T14:34:55.185Z,56.73
2022-09-15T14:37:29.361Z,56.44
2022-09-15T14:39:59.969Z,55.87
2022-09-15T14:42:31.126Z,55.50
2022-09-15T14:48:09.010Z,56.24
2022-09-15T14:50:37.565Z,55.34
2022-09-15T14:53:13.672Z,55.90
2022-09-15T14:56:08.220Z,54.78
2022-09-15T14:58:58.306Z,54.72
2022-09-15T15:02:02.344Z,55.12
2022-09-15T15:04:30.043Z,54.82
2022-09-15T15:07:22.753Z,55.32
2022-09-15T15:09:56.446Z,55.74
2022-09-15T15:12:34.201Z,55.08
2022-09-15T15:15:03.039Z,54.07
2022-09-15T15:17:41.981Z,54.31
2022-09-15T15:20:09.774Z,54.64
2022-09-15T15:22:39.238Z,55.08
2022-09-15T15:25:32.320Z,55.33
2022-09-15T15:28:00.689Z,55.44
2022-09-15T15:30:31.381Z,55.44
2022-09-15T15:33:19.283Z,55.15
2022-09-15T15:36:02.280Z,55.40
2022-09-15T15:38:34.490Z,55.78
2022-09-15T15:41:08.096Z,55.93
2022-09-15T15:43:36.152Z,55.83
2022-09-15T15:46:06.389Z,55.58
2022-09-15T15:48:38.239Z,55.66
2022-09-15T15:51:07.704Z,55.82
2022-09-15T15:53:35.682Z,55.69
2022-09-15T15:56:03.483Z,56.06
2022-09-15T15:58:31.487Z,55.77
2022-09-15T16:00:59.878Z,56.24
2022-09-15T16:03:27.878Z,56.12
2022-09-15T16:06:00.191Z,56.70
2022-09-15T16:08:34.795Z,57.61
2022-09-15T16:11:03.462Z,58.52
2022-09-15T16:13:31.378Z,58.87
2022-09-15T16:16:00.985Z,58.61
2022-09-15T16:18:29.676Z,59.25
2022-09-15T16:20:57.538Z,59.71
2022-09-15T16:23:25.286Z,59.60
2022-09-15T16:26:02.829Z,59.85
2022-09-15T16:28:30.770Z,60.09
2022-09-15T16:30:59.607Z,60.27
2022-09-15T16:33:27.638Z,60.22
2022-09-15T16:35:57.458Z,60.43
2022-09-15T16:38:25.854Z,60.70
2022-09-15T16:40:53.713Z,60.71
2022-09-15T16:43:22.680Z,60.88
2022-09-15T16:45:51.478Z,61.27
2022-09-15T16:48:20.172Z,61.60
2022-09-15T16:51:16.954Z,61.75
2022-09-15T16:53:39.545Z,61.66
2022-09-15T16:56:11.225Z,62.04
2022-09-15T16:58:40.005Z,62.65
2022-09-15T17:01:16.067Z,63.60
2022-09-15T17:03:44.952Z,63.70
2022-09-15T17:06:14.804Z,63.40
2022-09-15T17:08:42.761Z,64.32
2022-09-15T17:11:16.819Z,64.20
2022-09-15T17:13:46.894Z,64.76
2022-09-15T17:16:19.546Z,64.81
2022-09-15T17:18:47.845Z,65.24
2022-09-15T17:21:17.909Z,65.43
2022-09-15T17:23:49.282Z,65.70
2022-09-15T17:26:30.524Z,65.54
2022-09-15T17:28:59.502Z,65.81
2022-09-15T17:31:28.151Z,66.33
2022-09-15T17:33:56.298Z,66.20
2022-09-15T17:36:24.135Z,66.36
2022-09-15T17:38:51.967Z,66.39
2022-09-15T17:41:22.976Z,66.75
2022-09-15T17:43:52.009Z,66.53
2022-09-15T17:46:19.837Z,66.54
2022-09-15T17:48:47.608Z,66.93
2022-09-15T17:51:17.539Z,67.05
2022-09-15T17:53:46.995Z,67.02
2022-09-15T17:56:15.011Z,67.13
2022-09-15T17:58:43.842Z,67.39
2022-09-15T18:01:14.061Z,67.13
2022-09-15T18:03:44.242Z,67.43
2022-09-15T18:06:12.504Z,67.72
2022-09-15T18:08:40.807Z,67.75
2022-09-15T18:11:08.720Z,67.72
2022-09-15T18:13:37.830Z,67.62
2022-09-15T18:16:07.889Z,67.72
2022-09-15T18:18:35.759Z,67.95
2022-09-15T18:21:08.599Z,68.39
2022-09-15T18:23:38.271Z,68.18
2022-09-15T18:26:06.121Z,68.15
2022-09-15T18:28:33.918Z,68.24
2022-09-15T18:31:01.745Z,68.34
2022-09-15T18:33:30.143Z,68.25
2022-09-15T18:36:01.453Z,68.47
2022-09-15T18:38:29.299Z,68.54
2022-09-15T18:40:57.187Z,68.48
2022-09-15T18:43:27.831Z,68.76
2022-09-15T18:46:00.540Z,68.81
2022-09-15T18:48:30.373Z,68.85
2022-09-15T18:50:58.755Z,68.93
2022-09-15T18:53:26.595Z,68.88
2022-09-15T18:55:54.495Z,69.06
2022-09-15T18:58:22.770Z,69.08
2022-09-15T19:00:50.530Z,69.14
2022-09-15T19:03:18.433Z,69.24
2022-09-15T19:05:46.248Z,69.07
2022-09-15T19:08:14.233Z,69.39
2022-09-15T19:10:44.042Z,69.25
2022-09-15T19:13:13.854Z,69.16
2022-09-15T19:15:43.988Z,69.23
2022-09-15T19:18:12.029Z,69.15
2022-09-15T19:20:40.341Z,69.18
2022-09-15T19:23:09.637Z,69.16
2022-09-15T19:25:37.691Z,69.25
2022-09-15T19:28:11.498Z,69.24
2022-09-15T19:30:39.364Z,69.34
2022-09-15T19:33:07.207Z,69.32
2022-09-15T19:35:34.947Z,69.41
2022-09-15T19:38:02.698Z,69.44
2022-09-15T19:40:31.025Z,69.55
2022-09-15T19:42:59.003Z,69.60
2022-09-15T19:45:26.925Z,69.69
2022-09-15T19:47:54.687Z,69.78
2022-09-15T19:50:23.327Z,69.82
2022-09-15T19:52:51.089Z,70.03
2022-09-15T19:55:18.926Z,70.18
2022-09-15T19:57:46.677Z,70.10
2022-09-15T20:00:14.946Z,70.20
2022-09-15T20:02:46.773Z,70.32
2022-09-15T20:05:14.880Z,70.38
2022-09-15T20:07:44.736Z,70.43
2022-09-15T20:10:12.633Z,70.53
2022-09-15T20:12:40.535Z,70.52
2022-09-15T20:15:08.874Z,70.50
2022-09-15T20:17:41.585Z,70.59
2022-09-15T20:20:11.760Z,70.58
2022-09-15T20:22:39.666Z,70.75
2022-09-15T20:25:07.695Z,70.87
2022-09-15T20:27:35.466Z,71.06
2022-09-15T20:30:04.264Z,71.31
2022-09-15T20:32:33.951Z,71.37
2022-09-15T20:35:02.118Z,71.41
2022-09-15T20:37:36.627Z,71.35
2022-09-15T20:40:08.554Z,71.64
2022-09-15T20:42:37.045Z,71.55
2022-09-15T20:45:05.429Z,71.56
2022-09-15T20:47:33.430Z,71.66
2022-09-15T20:50:01.248Z,71.72
2022-09-15T20:52:35.925Z,71.84
2022-09-15T20:55:06.304Z,71.74
2022-09-15T20:57:34.155Z,71.73
2022-09-15T21:00:04.793Z,71.76
2022-09-15T21:02:32.779Z,71.71
2022-09-15T21:05:00.620Z,71.96
2022-09-15T21:07:28.451Z,71.73
2022-09-15T21:09:56.221Z,71.80
2022-09-15T21:12:24.014Z,71.82
2022-09-15T21:14:51.898Z,71.84
2022-09-15T21:17:19.803Z,72.06
2022-09-15T21:19:47.602Z,72.04
2022-09-15T21:22:15.377Z,71.96
2022-09-15T21:24:43.241Z,72.05
2022-09-15T21:27:27.156Z,72.18
2022-09-15T21:29:54.821Z,72.29
2022-09-15T21:32:23.223Z,72.39
2022-09-15T21:34:51.166Z,72.39
2022-09-15T21:37:18.975Z,72.34
2022-09-15T21:39:46.830Z,72.30
2022-09-15T21:42:15.068Z,72.52
2022-09-15T21:44:42.844Z,72.51
2022-09-15T21:47:11.107Z,72.56
2022-09-15T21:49:38.867Z,72.67
2022-09-15T21:52:06.647Z,72.74
2022-09-15T21:54:34.640Z,72.76
2022-09-15T21:57:02.433Z,72.73
2022-09-15T21:59:30.228Z,73.02
2022-09-15T22:01:58.077Z,73.12
2022-09-15T22:04:25.996Z,73.19
2022-09-15T22:06:54.162Z,73.07
2022-09-15T22:09:21.940Z,73.13
2022-09-15T22:11:49.761Z,73.17
2022-09-15T22:14:18.083Z,73.41
2022-09-15T22:16:46.041Z,73.58
2022-09-15T22:19:14.115Z,73.57
2022-09-15T22:21:42.342Z,73.87
2022-09-15T22:24:13.083Z,73.96
2022-09-15T22:26:42.544Z,74.27
2022-09-15T22:29:10.846Z,74.29
2022-09-15T22:31:38.831Z,74.45
2022-09-15T22:34:06.803Z,74.85
2022-09-15T22:40:10.677Z,75.17
2022-09-15T22:42:38.840Z,75.16
2022-09-15T22:45:08.539Z,75.06
2022-09-15T22:47:36.336Z,75.50
2022-09-15T22:50:04.516Z,75.44
2022-09-15T22:52:32.290Z,75.63
2022-09-15T22:55:01.340Z,75.62
2022-09-15T22:57:29.146Z,75.68
2022-09-15T22:59:56.920Z,75.75
2022-09-15T23:02:24.778Z,75.85
2022-09-15T23:04:54.267Z,75.96
2022-09-15T23:07:21.988Z,76.05
2022-09-15T23:09:49.707Z,75.90
2022-09-15T23:12:17.482Z,76.17
2022-09-15T23:14:45.336Z,76.12
2022-09-15T23:17:13.169Z,76.26
2022-09-15T23:19:40.937Z,76.29
2022-09-15T23:22:08.665Z,76.43
2022-09-15T23:24:36.664Z,76.33
2022-09-15T23:27:04.688Z,76.80
2022-09-15T23:29:32.577Z,76.62
2022-09-15T23:32:00.291Z,77.02
2022-09-15T23:34:28.073Z,76.98
2022-09-15T23:36:57.008Z,76.84
2022-09-15T23:39:25.063Z,76.85
2022-09-15T23:41:52.869Z,77.08
2022-09-15T23:44:20.792Z,76.99
2022-09-15T23:46:48.963Z,76.78
2022-09-15T23:49:18.771Z,77.65
2022-09-15T23:51:46.779Z,78.20
2022-09-15T23:54:14.745Z,77.67
2022-09-15T23:56:43.329Z,77.73
2022-09-15T23:59:11.144Z,77.98
